sensor_id;sensor_type;location;lat;lon;timestamp;temperature;humidity
22430;DHT22;11382;48.086;11.632;2022-10-23T00:00:40;10.00;99.90
22430;DHT22;11382;48.086;11.632;2022-10-23T00:03:10;9.90;99.90
22430;DHT22;11382;48.086;11.632;2022-10-23T00:05:38;9.90;99.90
22430;DHT22;11382;48.086;11.632;2022-10-23T00:08:07;9.90;99.90
22430;DHT22;11382;48.086;11.632;2022-10-23T00:10:38;9.90;99.90
22430;DHT22;11382;48.086;11.632;2022-10-23T00:13:07;9.80;99.90
22430;DHT22;11382;48.086;11.632;2022-10-23T00:15:35;9.80;99.90
22430;DHT22;11382;48.086;11.632;2022-10-23T00:18:04;9.80;99.90
22430;DHT22;11382;48.086;11.632;2022-10-23T00:20:33;9.80;99.90
22430;DHT22;11382;48.086;11.632;2022-10-23T00:23:01;9.70;99.90
22430;DHT22;11382;48.086;11.632;2022-10-23T00:25:29;9.70;99.90
22430;DHT22;11382;48.086;11.632;2022-10-23T00:27:58;9.70;99.90
22430;DHT22;11382;48.086;11.632;2022-10-23T00:30:26;9.60;99.90
22430;DHT22;11382;48.086;11.632;2022-10-23T00:32:54;9.60;99.90
22430;DHT22;11382;48.086;11.632;2022-10-23T00:35:22;9.60;99.90
22430;DHT22;11382;48.086;11.632;2022-10-23T00:37:52;9.70;99.90
22430;DHT22;11382;48.086;11.632;2022-10-23T00:40:20;9.70;99.90
22430;DHT22;11382;48.086;11.632;2022-10-23T00:42:48;9.60;99.90
22430;DHT22;11382;48.086;11.632;2022-10-23T00:45:19;9.50;99.90
22430;DHT22;11382;48.086;11.632;2022-10-23T00:47:48;9.40;99.90
22430;DHT22;11382;48.086;11.632;2022-10-23T00:50:17;9.40;99.90
22430;DHT22;11382;48.086;11.632;2022-10-23T00:52:47;9.40;99.90
22430;DHT22;11382;48.086;11.632;2022-10-23T00:55:19;9.50;99.90
22430;DHT22;11382;48.086;11.632;2022-10-23T00:57:48;9.50;99.90
22430;DHT22;11382;48.086;11.632;2022-10-23T01:00:19;9.40;99.90
22430;DHT22;11382;48.086;11.632;2022-10-23T01:02:48;9.40;99.90
22430;DHT22;11382;48.086;11.632;2022-10-23T01:05:17;9.40;99.90
22430;DHT22;11382;48.086;11.632;2022-10-23T01:07:49;9.40;99.90
22430;DHT22;11382;48.086;11.632;2022-10-23T01:10:26;9.30;99.90
22430;DHT22;11382;48.086;11.632;2022-10-23T01:13:01;9.20;99.90
22430;DHT22;11382;48.086;11.632;2022-10-23T01:15:36;9.20;99.90
22430;DHT22;11382;48.086;11.632;2022-10-23T01:18:11;9.10;99.90
22430;DHT22;11382;48.086;11.632;2022-10-23T01:20:49;9.10;99.90
22430;DHT22;11382;48.086;11.632;2022-10-23T01:23:40;9.00;99.90
22430;DHT22;11382;48.086;11.632;2022-10-23T01:26:34;8.90;99.90
22430;DHT22;11382;48.086;11.632;2022-10-23T01:29:09;9.00;99.90
22430;DHT22;11382;48.086;11.632;2022-10-23T01:31:45;9.00;99.90
22430;DHT22;11382;48.086;11.632;2022-10-23T01:34:19;9.00;99.90
22430;DHT22;11382;48.086;11.632;2022-10-23T01:36:51;9.00;99.90
22430;DHT22;11382;48.086;11.632;2022-10-23T01:39:22;8.90;99.90
22430;DHT22;11382;48.086;11.632;2022-10-23T01:41:54;9.00;99.90
22430;DHT22;11382;48.086;11.632;2022-10-23T01:44:33;9.00;99.90
22430;DHT22;11382;48.086;11.632;2022-10-23T01:47:05;9.00;99.90
22430;DHT22;11382;48.086;11.632;2022-10-23T01:49:43;9.00;99.90
22430;DHT22;11382;48.086;11.632;2022-10-23T01:52:15;8.90;99.90
22430;DHT22;11382;48.086;11.632;2022-10-23T01:54:49;8.90;99.90
22430;DHT22;11382;48.086;11.632;2022-10-23T01:57:19;8.90;99.90
22430;DHT22;11382;48.086;11.632;2022-10-23T01:59:54;8.90;99.90
22430;DHT22;11382;48.086;11.632;2022-10-23T02:02:25;8.80;99.90
22430;DHT22;11382;48.086;11.632;2022-10-23T02:04:58;8.80;99.90
22430;DHT22;11382;48.086;11.632;2022-10-23T02:07:27;8.90;99.90
22430;DHT22;11382;48.086;11.632;2022-10-23T02:09:56;9.00;99.90
22430;DHT22;11382;48.086;11.632;2022-10-23T02:12:30;9.00;99.90
22430;DHT22;11382;48.086;11.632;2022-10-23T02:15:06;9.00;99.90
22430;DHT22;11382;48.086;11.632;2022-10-23T02:17:44;8.90;99.90
22430;DHT22;11382;48.086;11.632;2022-10-23T02:20:18;8.80;99.90
22430;DHT22;11382;48.086;11.632;2022-10-23T02:22:54;8.60;99.90
22430;DHT22;11382;48.086;11.632;2022-10-23T02:25:29;8.60;99.90
22430;DHT22;11382;48.086;11.632;2022-10-23T02:28:02;8.60;99.90
22430;DHT22;11382;48.086;11.632;2022-10-23T02:30:42;8.60;99.90
22430;DHT22;11382;48.086;11.632;2022-10-23T02:33:12;8.60;99.90
22430;DHT22;11382;48.086;11.632;2022-10-23T02:35:41;8.60;99.90
22430;DHT22;11382;48.086;11.632;2022-10-23T02:38:30;8.60;99.90
22430;DHT22;11382;48.086;11.632;2022-10-23T02:41:13;8.30;99.90
22430;DHT22;11382;48.086;11.632;2022-10-23T02:43:49;8.30;99.90
22430;DHT22;11382;48.086;11.632;2022-10-23T02:46:24;8.50;99.90
22430;DHT22;11382;48.086;11.632;2022-10-23T02:48:59;8.50;99.90
22430;DHT22;11382;48.086;11.632;2022-10-23T02:51:34;8.40;99.90
22430;DHT22;11382;48.086;11.632;2022-10-23T02:54:07;8.40;99.90
22430;DHT22;11382;48.086;11.632;2022-10-23T02:56:44;8.40;99.90
22430;DHT22;11382;48.086;11.632;2022-10-23T02:59:20;8.40;99.90
22430;DHT22;11382;48.086;11.632;2022-10-23T03:01:56;8.50;99.90
22430;DHT22;11382;48.086;11.632;2022-10-23T03:04:29;8.50;99.90
22430;DHT22;11382;48.086;11.632;2022-10-23T03:06:58;8.50;99.90
22430;DHT22;11382;48.086;11.632;2022-10-23T03:09:27;8.50;99.90
22430;DHT22;11382;48.086;11.632;2022-10-23T03:11:55;8.30;99.90
22430;DHT22;11382;48.086;11.632;2022-10-23T03:14:23;8.30;99.90
22430;DHT22;11382;48.086;11.632;2022-10-23T03:16:52;8.30;99.90
22430;DHT22;11382;48.086;11.632;2022-10-23T03:19:20;8.40;99.90
22430;DHT22;11382;48.086;11.632;2022-10-23T03:21:48;8.30;99.90
22430;DHT22;11382;48.086;11.632;2022-10-23T03:24:16;8.40;99.90
22430;DHT22;11382;48.086;11.632;2022-10-23T03:26:45;8.30;99.90
22430;DHT22;11382;48.086;11.632;2022-10-23T03:29:13;8.30;99.90
22430;DHT22;11382;48.086;11.632;2022-10-23T03:31:44;8.30;99.90
22430;DHT22;11382;48.086;11.632;2022-10-23T03:34:13;8.20;99.90
22430;DHT22;11382;48.086;11.632;2022-10-23T03:36:41;8.20;99.90
22430;DHT22;11382;48.086;11.632;2022-10-23T03:39:10;8.30;99.90
22430;DHT22;11382;48.086;11.632;2022-10-23T03:41:38;8.30;99.90
22430;DHT22;11382;48.086;11.632;2022-10-23T03:44:06;8.30;99.90
22430;DHT22;11382;48.086;11.632;2022-10-23T03:46:34;8.30;99.90
22430;DHT22;11382;48.086;11.632;2022-10-23T03:49:03;8.30;99.90
22430;DHT22;11382;48.086;11.632;2022-10-23T03:59:01;8.20;99.90
22430;DHT22;11382;48.086;11.632;2022-10-23T04:01:29;8.00;99.90
22430;DHT22;11382;48.086;11.632;2022-10-23T04:03:57;7.90;99.90
22430;DHT22;11382;48.086;11.632;2022-10-23T04:06:27;8.00;99.90
22430;DHT22;11382;48.086;11.632;2022-10-23T04:08:56;8.10;99.90
22430;DHT22;11382;48.086;11.632;2022-10-23T04:11:24;8.10;99.90
22430;DHT22;11382;48.086;11.632;2022-10-23T04:13:52;8.10;99.90
22430;DHT22;11382;48.086;11.632;2022-10-23T04:16:23;8.10;99.90
22430;DHT22;11382;48.086;11.632;2022-10-23T04:18:51;8.00;99.90
22430;DHT22;11382;48.086;11.632;2022-10-23T04:21:19;7.90;99.90
22430;DHT22;11382;48.086;11.632;2022-10-23T04:23:47;7.90;99.90
22430;DHT22;11382;48.086;11.632;2022-10-23T04:26:17;7.90;99.90
22430;DHT22;11382;48.086;11.632;2022-10-23T04:28:45;7.90;99.90
22430;DHT22;11382;48.086;11.632;2022-10-23T04:31:13;7.80;99.90
22430;DHT22;11382;48.086;11.632;2022-10-23T04:33:43;7.80;99.90
22430;DHT22;11382;48.086;11.632;2022-10-23T04:36:27;7.90;99.90
22430;DHT22;11382;48.086;11.632;2022-10-23T04:39:00;8.00;99.90
22430;DHT22;11382;48.086;11.632;2022-10-23T04:41:28;7.90;99.90
22430;DHT22;11382;48.086;11.632;2022-10-23T04:43:57;7.80;99.90
22430;DHT22;11382;48.086;11.632;2022-10-23T04:46:25;7.70;99.90
22430;DHT22;11382;48.086;11.632;2022-10-23T04:48:54;7.80;99.90
22430;DHT22;11382;48.086;11.632;2022-10-23T04:51:40;7.90;99.90
22430;DHT22;11382;48.086;11.632;2022-10-23T04:54:23;7.90;99.90
22430;DHT22;11382;48.086;11.632;2022-10-23T04:57:20;8.00;99.90
22430;DHT22;11382;48.086;11.632;2022-10-23T04:59:58;8.00;99.90
22430;DHT22;11382;48.086;11.632;2022-10-23T05:02:32;8.00;99.90
22430;DHT22;11382;48.086;11.632;2022-10-23T05:05:02;8.00;99.90
22430;DHT22;11382;48.086;11.632;2022-10-23T05:07:30;8.10;99.90
22430;DHT22;11382;48.086;11.632;2022-10-23T05:10:11;8.10;99.90
22430;DHT22;11382;48.086;11.632;2022-10-23T05:12:57;8.10;99.90
22430;DHT22;11382;48.086;11.632;2022-10-23T05:15:26;8.10;99.90
22430;DHT22;11382;48.086;11.632;2022-10-23T05:17:56;8.20;99.90
22430;DHT22;11382;48.086;11.632;2022-10-23T05:20:29;8.30;99.90
22430;DHT22;11382;48.086;11.632;2022-10-23T05:23:00;8.40;99.90
22430;DHT22;11382;48.086;11.632;2022-10-23T05:25:29;8.40;99.90
22430;DHT22;11382;48.086;11.632;2022-10-23T05:28:06;8.50;99.90
22430;DHT22;11382;48.086;11.632;2022-10-23T05:30:34;8.50;99.90
22430;DHT22;11382;48.086;11.632;2022-10-23T05:33:03;8.50;99.90
22430;DHT22;11382;48.086;11.632;2022-10-23T05:35:39;8.40;99.90
22430;DHT22;11382;48.086;11.632;2022-10-23T05:38:08;8.50;99.90
22430;DHT22;11382;48.086;11.632;2022-10-23T05:40:37;8.60;99.90
22430;DHT22;11382;48.086;11.632;2022-10-23T05:43:15;8.60;99.90
22430;DHT22;11382;48.086;11.632;2022-10-23T05:46:03;8.70;99.90
22430;DHT22;11382;48.086;11.632;2022-10-23T05:49:03;8.70;99.90
22430;DHT22;11382;48.086;11.632;2022-10-23T05:51:39;8.70;99.90
22430;DHT22;11382;48.086;11.632;2022-10-23T05:54:31;8.60;99.90
22430;DHT22;11382;48.086;11.632;2022-10-23T05:57:15;8.70;99.90
22430;DHT22;11382;48.086;11.632;2022-10-23T05:59:50;8.70;99.90
22430;DHT22;11382;48.086;11.632;2022-10-23T06:02:18;8.70;99.90
22430;DHT22;11382;48.086;11.632;2022-10-23T06:04:58;8.80;99.90
22430;DHT22;11382;48.086;11.632;2022-10-23T06:07:56;8.70;99.90
22430;DHT22;11382;48.086;11.632;2022-10-23T06:10:26;8.70;99.90
22430;DHT22;11382;48.086;11.632;2022-10-23T06:12:56;8.70;99.90
22430;DHT22;11382;48.086;11.632;2022-10-23T06:15:25;8.60;99.90
22430;DHT22;11382;48.086;11.632;2022-10-23T06:18:02;8.70;99.90
22430;DHT22;11382;48.086;11.632;2022-10-23T06:20:35;8.70;99.90
22430;DHT22;11382;48.086;11.632;2022-10-23T06:23:10;8.80;99.90
22430;DHT22;11382;48.086;11.632;2022-10-23T06:25:59;8.80;99.90
22430;DHT22;11382;48.086;11.632;2022-10-23T06:28:38;8.80;99.90
22430;DHT22;11382;48.086;11.632;2022-10-23T06:31:09;8.90;99.90
22430;DHT22;11382;48.086;11.632;2022-10-23T06:33:38;9.00;99.90
22430;DHT22;11382;48.086;11.632;2022-10-23T06:36:07;9.20;99.90
22430;DHT22;11382;48.086;11.632;2022-10-23T06:38:45;9.30;99.90
22430;DHT22;11382;48.086;11.632;2022-10-23T06:41:18;9.40;99.90
22430;DHT22;11382;48.086;11.632;2022-10-23T06:43:52;9.50;99.90
22430;DHT22;11382;48.086;11.632;2022-10-23T06:46:26;9.50;99.90
22430;DHT22;11382;48.086;11.632;2022-10-23T06:49:15;9.60;99.90
22430;DHT22;11382;48.086;11.632;2022-10-23T06:51:46;9.70;99.90
22430;DHT22;11382;48.086;11.632;2022-10-23T06:54:20;9.90;99.90
22430;DHT22;11382;48.086;11.632;2022-10-23T06:56:49;10.00;99.90
22430;DHT22;11382;48.086;11.632;2022-10-23T06:59:21;10.20;99.90
22430;DHT22;11382;48.086;11.632;2022-10-23T07:01:51;10.20;99.90
22430;DHT22;11382;48.086;11.632;2022-10-23T07:04:21;10.50;99.90
22430;DHT22;11382;48.086;11.632;2022-10-23T07:06:49;10.70;99.90
22430;DHT22;11382;48.086;11.632;2022-10-23T07:09:25;10.80;99.90
22430;DHT22;11382;48.086;11.632;2022-10-23T07:11:53;11.00;99.90
22430;DHT22;11382;48.086;11.632;2022-10-23T07:14:30;11.20;99.90
22430;DHT22;11382;48.086;11.632;2022-10-23T07:17:00;11.50;99.90
22430;DHT22;11382;48.086;11.632;2022-10-23T07:19:28;11.70;99.90
22430;DHT22;11382;48.086;11.632;2022-10-23T07:22:02;11.90;99.90
22430;DHT22;11382;48.086;11.632;2022-10-23T07:24:42;11.90;99.90
22430;DHT22;11382;48.086;11.632;2022-10-23T07:27:17;12.00;99.90
22430;DHT22;11382;48.086;11.632;2022-10-23T07:29:53;12.20;99.90
22430;DHT22;11382;48.086;11.632;2022-10-23T07:32:21;12.90;99.90
22430;DHT22;11382;48.086;11.632;2022-10-23T07:35:13;12.90;99.90
22430;DHT22;11382;48.086;11.632;2022-10-23T07:37:55;13.20;99.90
22430;DHT22;11382;48.086;11.632;2022-10-23T07:40:25;13.50;99.90
22430;DHT22;11382;48.086;11.632;2022-10-23T07:42:55;13.50;99.90
22430;DHT22;11382;48.086;11.632;2022-10-23T07:45:24;13.70;99.90
22430;DHT22;11382;48.086;11.632;2022-10-23T07:47:53;14.10;99.90
22430;DHT22;11382;48.086;11.632;2022-10-23T07:50:24;14.10;99.90
22430;DHT22;11382;48.086;11.632;2022-10-23T07:52:52;14.30;99.90
22430;DHT22;11382;48.086;11.632;2022-10-23T07:55:25;14.60;99.90
22430;DHT22;11382;48.086;11.632;2022-10-23T07:58:04;14.90;99.90
22430;DHT22;11382;48.086;11.632;2022-10-23T08:00:40;14.70;99.90
22430;DHT22;11382;48.086;11.632;2022-10-23T08:03:23;14.80;99.90
22430;DHT22;11382;48.086;11.632;2022-10-23T08:05:53;14.60;99.90
22430;DHT22;11382;48.086;11.632;2022-10-23T08:08:22;14.80;99.90
22430;DHT22;11382;48.086;11.632;2022-10-23T08:10:56;14.80;99.90
22430;DHT22;11382;48.086;11.632;2022-10-23T08:13:29;14.70;99.90
22430;DHT22;11382;48.086;11.632;2022-10-23T08:16:01;15.30;99.90
22430;DHT22;11382;48.086;11.632;2022-10-23T08:18:48;16.00;99.90
22430;DHT22;11382;48.086;11.632;2022-10-23T08:21:19;16.70;99.90
22430;DHT22;11382;48.086;11.632;2022-10-23T08:23:52;16.90;99.90
22430;DHT22;11382;48.086;11.632;2022-10-23T08:26:22;17.50;99.90
22430;DHT22;11382;48.086;11.632;2022-10-23T08:28:51;18.20;99.90
22430;DHT22;11382;48.086;11.632;2022-10-23T08:31:21;18.60;99.90
22430;DHT22;11382;48.086;11.632;2022-10-23T08:34:08;19.20;99.90
22430;DHT22;11382;48.086;11.632;2022-10-23T08:36:37;20.10;99.90
22430;DHT22;11382;48.086;11.632;2022-10-23T08:39:06;20.70;99.90
22430;DHT22;11382;48.086;11.632;2022-10-23T08:41:41;21.10;99.90
22430;DHT22;11382;48.086;11.632;2022-10-23T08:44:19;21.10;99.90
22430;DHT22;11382;48.086;11.632;2022-10-23T08:46:58;20.30;99.90
22430;DHT22;11382;48.086;11.632;2022-10-23T08:49:49;19.80;99.90
22430;DHT22;11382;48.086;11.632;2022-10-23T08:52:22;19.40;99.90
22430;DHT22;11382;48.086;11.632;2022-10-23T08:54:58;19.90;99.90
22430;DHT22;11382;48.086;11.632;2022-10-23T08:57:34;19.80;99.90
22430;DHT22;11382;48.086;11.632;2022-10-23T09:00:13;20.30;99.90
22430;DHT22;11382;48.086;11.632;2022-10-23T09:02:42;20.80;99.90
22430;DHT22;11382;48.086;11.632;2022-10-23T09:05:16;20.30;99.90
22430;DHT22;11382;48.086;11.632;2022-10-23T09:07:54;21.10;99.90
22430;DHT22;11382;48.086;11.632;2022-10-23T09:16:30;22.40;99.90
22430;DHT22;11382;48.086;11.632;2022-10-23T09:19:01;22.30;99.90
22430;DHT22;11382;48.086;11.632;2022-10-23T09:21:31;21.50;99.90
22430;DHT22;11382;48.086;11.632;2022-10-23T09:23:59;20.90;99.90
22430;DHT22;11382;48.086;11.632;2022-10-23T09:26:27;20.40;99.90
22430;DHT22;11382;48.086;11.632;2022-10-23T09:29:13;20.40;99.90
22430;DHT22;11382;48.086;11.632;2022-10-23T09:31:48;20.50;99.90
22430;DHT22;11382;48.086;11.632;2022-10-23T09:34:19;20.90;99.90
22430;DHT22;11382;48.086;11.632;2022-10-23T09:36:52;20.80;99.90
22430;DHT22;11382;48.086;11.632;2022-10-23T09:39:27;20.70;99.90
22430;DHT22;11382;48.086;11.632;2022-10-23T09:41:56;21.10;99.90
22430;DHT22;11382;48.086;11.632;2022-10-23T09:44:27;21.90;99.90
22430;DHT22;11382;48.086;11.632;2022-10-23T09:46:59;22.50;99.90
22430;DHT22;11382;48.086;11.632;2022-10-23T09:49:29;23.20;99.90
22430;DHT22;11382;48.086;11.632;2022-10-23T09:52:00;23.50;99.90
22430;DHT22;11382;48.086;11.632;2022-10-23T09:54:30;23.90;99.90
22430;DHT22;11382;48.086;11.632;2022-10-23T09:57:03;24.10;99.90
22430;DHT22;11382;48.086;11.632;2022-10-23T09:59:34;23.60;99.90
22430;DHT22;11382;48.086;11.632;2022-10-23T10:02:02;23.40;99.90
22430;DHT22;11382;48.086;11.632;2022-10-23T10:04:46;24.30;99.90
22430;DHT22;11382;48.086;11.632;2022-10-23T10:07:18;24.60;99.60
22430;DHT22;11382;48.086;11.632;2022-10-23T10:09:47;25.00;98.50
22430;DHT22;11382;48.086;11.632;2022-10-23T10:12:35;25.00;98.30
22430;DHT22;11382;48.086;11.632;2022-10-23T10:15:16;25.50;97.80
22430;DHT22;11382;48.086;11.632;2022-10-23T10:17:56;25.80;97.40
22430;DHT22;11382;48.086;11.632;2022-10-23T10:20:41;25.70;97.40
22430;DHT22;11382;48.086;11.632;2022-10-23T10:23:19;25.90;97.00
22430;DHT22;11382;48.086;11.632;2022-10-23T10:25:58;25.90;97.30
22430;DHT22;11382;48.086;11.632;2022-10-23T10:28:40;26.50;96.50
22430;DHT22;11382;48.086;11.632;2022-10-23T10:31:18;27.60;95.90
22430;DHT22;11382;48.086;11.632;2022-10-23T10:33:53;28.30;95.20
22430;DHT22;11382;48.086;11.632;2022-10-23T10:36:40;28.00;92.80
22430;DHT22;11382;48.086;11.632;2022-10-23T10:39:18;27.70;94.10
22430;DHT22;11382;48.086;11.632;2022-10-23T10:42:00;27.90;92.60
22430;DHT22;11382;48.086;11.632;2022-10-23T10:45:16;27.90;92.10
22430;DHT22;11382;48.086;11.632;2022-10-23T10:47:57;27.20;92.50
22430;DHT22;11382;48.086;11.632;2022-10-23T10:50:41;27.60;91.40
22430;DHT22;11382;48.086;11.632;2022-10-23T10:53:19;27.60;91.60
22430;DHT22;11382;48.086;11.632;2022-10-23T10:55:51;27.20;91.20
22430;DHT22;11382;48.086;11.632;2022-10-23T10:58:23;27.00;91.60
22430;DHT22;11382;48.086;11.632;2022-10-23T11:00:56;26.80;92.60
22430;DHT22;11382;48.086;11.632;2022-10-23T11:03:33;26.30;92.90
22430;DHT22;11382;48.086;11.632;2022-10-23T11:06:11;26.30;92.60
22430;DHT22;11382;48.086;11.632;2022-10-23T11:08:40;26.00;94.00
22430;DHT22;11382;48.086;11.632;2022-10-23T11:11:29;26.20;92.90
22430;DHT22;11382;48.086;11.632;2022-10-23T11:13:59;26.00;93.40
22430;DHT22;11382;48.086;11.632;2022-10-23T11:16:30;26.50;93.30
22430;DHT22;11382;48.086;11.632;2022-10-23T11:19:05;26.20;92.80
22430;DHT22;11382;48.086;11.632;2022-10-23T11:21:43;25.90;93.40
22430;DHT22;11382;48.086;11.632;2022-10-23T11:27:34;25.00;92.90
22430;DHT22;11382;48.086;11.632;2022-10-23T11:30:23;24.80;94.40
22430;DHT22;11382;48.086;11.632;2022-10-23T11:36:11;24.90;94.90
22430;DHT22;11382;48.086;11.632;2022-10-23T11:38:42;24.00;95.90
22430;DHT22;11382;48.086;11.632;2022-10-23T11:41:19;24.80;96.10
22430;DHT22;11382;48.086;11.632;2022-10-23T11:43:55;24.60;95.90
22430;DHT22;11382;48.086;11.632;2022-10-23T11:46:32;24.80;94.90
22430;DHT22;11382;48.086;11.632;2022-10-23T11:49:02;24.00;95.40
22430;DHT22;11382;48.086;11.632;2022-10-23T11:51:34;24.00;96.30
22430;DHT22;11382;48.086;11.632;2022-10-23T11:54:18;24.60;95.80
22430;DHT22;11382;48.086;11.632;2022-10-23T11:56:53;24.30;96.60
22430;DHT22;11382;48.086;11.632;2022-10-23T11:59:26;24.20;96.80
22430;DHT22;11382;48.086;11.632;2022-10-23T12:01:57;23.70;96.80
22430;DHT22;11382;48.086;11.632;2022-10-23T12:04:29;24.10;97.40
22430;DHT22;11382;48.086;11.632;2022-10-23T12:07:14;24.30;96.80
22430;DHT22;11382;48.086;11.632;2022-10-23T12:09:44;24.40;96.40
22430;DHT22;11382;48.086;11.632;2022-10-23T12:12:16;24.20;96.60
22430;DHT22;11382;48.086;11.632;2022-10-23T12:14:53;23.90;96.20
22430;DHT22;11382;48.086;11.632;2022-10-23T12:17:34;24.10;96.20
22430;DHT22;11382;48.086;11.632;2022-10-23T12:20:28;23.50;97.30
22430;DHT22;11382;48.086;11.632;2022-10-23T12:23:13;23.90;98.30
22430;DHT22;11382;48.086;11.632;2022-10-23T12:25:54;24.20;97.40
22430;DHT22;11382;48.086;11.632;2022-10-23T12:28:32;23.90;97.40
22430;DHT22;11382;48.086;11.632;2022-10-23T12:31:15;23.60;97.90
22430;DHT22;11382;48.086;11.632;2022-10-23T12:33:48;23.30;98.40
22430;DHT22;11382;48.086;11.632;2022-10-23T12:36:32;23.50;99.60
22430;DHT22;11382;48.086;11.632;2022-10-23T12:39:25;23.50;98.50
22430;DHT22;11382;48.086;11.632;2022-10-23T12:41:54;23.30;98.50
22430;DHT22;11382;48.086;11.632;2022-10-23T12:44:23;23.30;98.30
22430;DHT22;11382;48.086;11.632;2022-10-23T12:46:54;23.50;99.00
22430;DHT22;11382;48.086;11.632;2022-10-23T12:49:26;23.50;98.70
22430;DHT22;11382;48.086;11.632;2022-10-23T12:51:56;23.70;98.70
22430;DHT22;11382;48.086;11.632;2022-10-23T12:54:27;23.60;99.10
22430;DHT22;11382;48.086;11.632;2022-10-23T12:56:55;23.70;99.20
22430;DHT22;11382;48.086;11.632;2022-10-23T12:59:25;24.00;99.00
22430;DHT22;11382;48.086;11.632;2022-10-23T13:01:54;23.90;98.30
22430;DHT22;11382;48.086;11.632;2022-10-23T13:04:27;24.00;98.30
22430;DHT22;11382;48.086;11.632;2022-10-23T13:06:55;23.90;98.10
22430;DHT22;11382;48.086;11.632;2022-10-23T13:09:28;23.60;98.00
22430;DHT22;11382;48.086;11.632;2022-10-23T13:12:18;23.70;98.40
22430;DHT22;11382;48.086;11.632;2022-10-23T13:14:59;23.20;99.90
22430;DHT22;11382;48.086;11.632;2022-10-23T13:17:37;23.20;99.90
22430;DHT22;11382;48.086;11.632;2022-10-23T13:20:18;23.20;99.90
22430;DHT22;11382;48.086;11.632;2022-10-23T13:22:48;23.20;99.90
22430;DHT22;11382;48.086;11.632;2022-10-23T13:25:25;23.20;99.90
22430;DHT22;11382;48.086;11.632;2022-10-23T13:28:20;23.30;99.90
22430;DHT22;11382;48.086;11.632;2022-10-23T13:31:23;23.10;99.90
22430;DHT22;11382;48.086;11.632;2022-10-23T13:34:04;23.30;99.90
22430;DHT22;11382;48.086;11.632;2022-10-23T13:36:35;23.10;99.90
22430;DHT22;11382;48.086;11.632;2022-10-23T13:39:13;23.30;99.90
22430;DHT22;11382;48.086;11.632;2022-10-23T13:41:44;23.10;99.90
22430;DHT22;11382;48.086;11.632;2022-10-23T13:44:16;23.20;99.90
22430;DHT22;11382;48.086;11.632;2022-10-23T13:46:45;22.90;99.90
22430;DHT22;11382;48.086;11.632;2022-10-23T13:49:14;23.10;99.90
22430;DHT22;11382;48.086;11.632;2022-10-23T13:51:46;22.80;99.90
22430;DHT22;11382;48.086;11.632;2022-10-23T13:54:17;22.50;99.90
22430;DHT22;11382;48.086;11.632;2022-10-23T13:56:47;22.40;99.90
22430;DHT22;11382;48.086;11.632;2022-10-23T13:59:15;22.30;99.90
22430;DHT22;11382;48.086;11.632;2022-10-23T14:01:45;22.30;99.90
22430;DHT22;11382;48.086;11.632;2022-10-23T14:04:14;22.10;99.90
22430;DHT22;11382;48.086;11.632;2022-10-23T14:06:43;22.10;99.90
22430;DHT22;11382;48.086;11.632;2022-10-23T14:09:13;22.20;99.90
22430;DHT22;11382;48.086;11.632;2022-10-23T14:11:41;22.20;99.90
22430;DHT22;11382;48.086;11.632;2022-10-23T14:14:11;22.50;99.90
22430;DHT22;11382;48.086;11.632;2022-10-23T14:16:39;22.30;99.90
22430;DHT22;11382;48.086;11.632;2022-10-23T14:19:08;22.30;99.90
22430;DHT22;11382;48.086;11.632;2022-10-23T14:21:37;22.20;99.90
22430;DHT22;11382;48.086;11.632;2022-10-23T14:24:05;21.90;99.90
22430;DHT22;11382;48.086;11.632;2022-10-23T14:26:33;22.00;99.90
22430;DHT22;11382;48.086;11.632;2022-10-23T14:29:01;22.00;99.90
22430;DHT22;11382;48.086;11.632;2022-10-23T14:31:37;21.80;99.90
22430;DHT22;11382;48.086;11.632;2022-10-23T14:34:05;21.70;99.90
22430;DHT22;11382;48.086;11.632;2022-10-23T14:36:33;21.50;99.90
22430;DHT22;11382;48.086;11.632;2022-10-23T14:39:16;21.40;99.90
22430;DHT22;11382;48.086;11.632;2022-10-23T14:41:44;21.10;99.90
22430;DHT22;11382;48.086;11.632;2022-10-23T14:44:12;20.70;99.90
22430;DHT22;11382;48.086;11.632;2022-10-23T14:46:42;20.70;99.90
22430;DHT22;11382;48.086;11.632;2022-10-23T14:49:10;21.00;99.90
22430;DHT22;11382;48.086;11.632;2022-10-23T14:51:37;21.10;99.90
22430;DHT22;11382;48.086;11.632;2022-10-23T14:54:07;20.80;99.90
22430;DHT22;11382;48.086;11.632;2022-10-23T14:56:36;20.90;99.90
22430;DHT22;11382;48.086;11.632;2022-10-23T14:59:05;20.70;99.90
22430;DHT22;11382;48.086;11.632;2022-10-23T15:01:37;20.60;99.90
22430;DHT22;11382;48.086;11.632;2022-10-23T15:04:12;20.70;99.90
22430;DHT22;11382;48.086;11.632;2022-10-23T15:06:41;20.50;99.90
22430;DHT22;11382;48.086;11.632;2022-10-23T15:09:09;20.20;99.90
22430;DHT22;11382;48.086;11.632;2022-10-23T15:11:37;20.20;99.90
22430;DHT22;11382;48.086;11.632;2022-10-23T15:14:05;20.00;99.90
22430;DHT22;11382;48.086;11.632;2022-10-23T15:16:33;19.90;99.90
22430;DHT22;11382;48.086;11.632;2022-10-23T15:19:08;19.60;99.90
22430;DHT22;11382;48.086;11.632;2022-10-23T15:21:44;19.60;99.90
22430;DHT22;11382;48.086;11.632;2022-10-23T15:24:12;19.40;99.90
22430;DHT22;11382;48.086;11.632;2022-10-23T15:26:40;19.50;99.90
22430;DHT22;11382;48.086;11.632;2022-10-23T15:29:09;19.40;99.90
22430;DHT22;11382;48.086;11.632;2022-10-23T15:31:58;19.30;99.90
22430;DHT22;11382;48.086;11.632;2022-10-23T15:34:29;19.30;99.90
22430;DHT22;11382;48.086;11.632;2022-10-23T15:36:59;19.20;99.90
22430;DHT22;11382;48.086;11.632;2022-10-23T15:39:29;19.20;99.90
22430;DHT22;11382;48.086;11.632;2022-10-23T15:42:00;19.10;99.90
22430;DHT22;11382;48.086;11.632;2022-10-23T15:44:29;18.90;99.90
22430;DHT22;11382;48.086;11.632;2022-10-23T15:46:59;18.90;99.90
22430;DHT22;11382;48.086;11.632;2022-10-23T15:49:28;18.80;99.90
22430;DHT22;11382;48.086;11.632;2022-10-23T15:51:56;18.70;99.90
22430;DHT22;11382;48.086;11.632;2022-10-23T15:54:25;18.70;99.90
22430;DHT22;11382;48.086;11.632;2022-10-23T15:56:58;18.60;99.90
22430;DHT22;11382;48.086;11.632;2022-10-23T15:59:27;18.60;99.90
22430;DHT22;11382;48.086;11.632;2022-10-23T16:01:56;18.50;99.90
22430;DHT22;11382;48.086;11.632;2022-10-23T16:04:24;18.40;99.90
22430;DHT22;11382;48.086;11.632;2022-10-23T16:06:52;18.30;99.90
22430;DHT22;11382;48.086;11.632;2022-10-23T16:09:20;18.20;99.90
22430;DHT22;11382;48.086;11.632;2022-10-23T16:11:49;18.20;99.90
22430;DHT22;11382;48.086;11.632;2022-10-23T16:14:17;18.00;99.90
22430;DHT22;11382;48.086;11.632;2022-10-23T16:16:45;17.90;99.90
22430;DHT22;11382;48.086;11.632;2022-10-23T16:19:13;17.90;99.90
22430;DHT22;11382;48.086;11.632;2022-10-23T16:21:41;17.80;99.90